• Join FlightAware (Why Join?)
  • Login
  • US Flag 
02:57AM EST


 

Airport Tracker/Info


-or-


 

Live Flight TrackerFlight Track Log ✈ FAO854 ✈ 14-Mar-2014 ✈ KPIE - KSBN

Flight Track Log - Related Links

Times and Time Zones

All times are in EDT time to prevent confusion due to time zone crossing. See the FAO854 flight status page for this flight to view local times or setup timezone preferences in your user account.

Time Position Orientation Groundspeed Altitude Reporting Facility
EDT Latitude Longitude Course Direction KTS MPH feet Rate Location/Type
03:53PM 27.8833 -82.6833 180° South 176 203 800  Level Tampa TRACON
03:53PM 27.8500 -82.6833 180° South 195 224 1,600 900 Climbing Tampa TRACON
03:54PM 27.8000 -82.6833 180° South 214 246 2,500 1,260 Climbing Tampa TRACON
03:55PM 27.7667 -82.7333 233° Southwest 226 260 4,200 1,620 Climbing Tampa TRACON
03:57PM 27.7667 -82.8333 270° West 283 326 6,000 1,800 Climbing Tampa TRACON
04:00PM 28.0853 -82.8878 351° North 371 427 13,100 1,980 Climbing Jacksonville Center
04:01PM 28.1875 -82.8903 359° North 371 427 15,600 2,220 Climbing Jacksonville Center
04:02PM 28.2961 -82.8856 North 380 437 17,600 1,800 Climbing Jacksonville Center
04:03PM 28.4067 -82.8903 358° North 390 449 19,300 1,560 Climbing Jacksonville Center
04:04PM 28.5131 -82.9233 345° North 390 449 20,800 1,560 Climbing Jacksonville Center
04:05PM 28.6131 -82.9542 345° North 408 470 22,500 1,560 Climbing Jacksonville Center
04:06PM 28.7217 -82.9897 344° North 403 464 24,000 1,500 Climbing Jacksonville Center
04:07PM 28.8364 -83.0278 344° North 408 470 25,500 1,380 Climbing Jacksonville Center
04:08PM 28.9511 -83.0681 343° North 413 475 26,800 1,860 Climbing Jacksonville Center
04:09PM 29.0639 -83.1039 344° North 420 483 29,300 1,860 Climbing Jacksonville Center
04:10PM 29.1703 -83.1422 343° North 406 467 30,600 1,200 Climbing Jacksonville Center
04:11PM 29.2744 -83.1783 343° North 400 460 31,800 660 Climbing Jacksonville Center
04:12PM 29.3892 -83.2192 343° North 394 453 32,000 60 Climbing Jacksonville Center
04:13PM 29.4936 -83.2528 344° North 394 453 32,000  Level Jacksonville Center
04:14PM 29.5958 -83.2914 342° North 394 453 32,000  Level Jacksonville Center
04:15PM 29.7019 -83.3278 343° North 388 447 32,000  Level Jacksonville Center
04:16PM 29.8083 -83.3617 345° North 388 447 32,000  Level Jacksonville Center
04:17PM 29.9106 -83.3958 344° North 388 447 32,000  Level Jacksonville Center
04:18PM 30.0169 -83.4322 344° North 388 447 32,000  Level Jacksonville Center
04:19PM 30.1192 -83.4664 344° North 388 447 32,000  Level Jacksonville Center
04:20PM 30.2253 -83.5033 343° North 388 447 32,000  Level Jacksonville Center
04:21PM 30.3297 -83.5375 344° North 388 447 32,000  Level Jacksonville Center
04:22PM 30.4339 -83.5769 342° North 383 441 32,000  Level Jacksonville Center
04:23PM 30.5381 -83.6114 344° North 383 441 32,000  Level Jacksonville Center
04:24PM 30.6275 -83.6408 344° North 373 429 32,000  Level Jacksonville Center
04:25PM 30.7275 -83.6781 342° North 378 435 32,000  Level Jacksonville Center
04:26PM 30.8317 -83.7128 344° North 378 435 32,000  Level Jacksonville Center
04:27PM 30.9381 -83.7500 343° North 385 443 32,000  Level Jacksonville Center
04:28PM 31.0422 -83.7872 343° North 385 443 32,000  Level Jacksonville Center
04:29PM 31.1464 -83.8247 343° North 385 443 32,000  Level Jacksonville Center
04:30PM 31.2506 -83.8622 343° North 385 443 32,000  Level Jacksonville Center
04:31PM 31.3567 -83.8972 344° North 385 443 32,000  Level Jacksonville Center
04:32PM 31.4608 -83.9350 343° North 385 443 32,000  Level Jacksonville Center
04:34PM 31.6611 -83.9925 346° North 395 455 32,000  Level Atlanta Center
04:35PM 31.7717 -84.0144 350° North 403 464 32,000  Level Atlanta Center
04:36PM 31.8781 -84.0364 350° North 397 457 32,000  Level Atlanta Center
04:37PM 31.9867 -84.0608 349° North 392 451 32,000  Level Atlanta Center
04:38PM 32.0931 -84.0856 349° North 392 451 32,000  Level Atlanta Center
04:39PM 32.2017 -84.1100 349° North 392 451 32,000  Level Atlanta Center
04:40PM 32.3081 -84.1347 349° North 392 451 32,000  Level Atlanta Center
04:41PM 32.4144 -84.1569 350° North 392 451 32,000  Level Atlanta Center
04:42PM 32.5189 -84.1842 348° North 392 451 32,000  Level Atlanta Center
04:43PM 32.6253 -84.2067 350° North 392 451 32,000  Level Atlanta Center
04:44PM 32.7294 -84.2289 350° North 392 451 32,000  Level Atlanta Center
04:45PM 32.8464 -84.2639 346° North 392 451 32,000  Level Atlanta Center
04:46PM 32.9444 -84.2839 350° North 392 451 32,000  Level Atlanta Center
04:47PM 33.0489 -84.3064 350° North 392 451 32,000  Level Atlanta Center
04:48PM 33.1553 -84.3292 350° North 392 451 32,000  Level Atlanta Center
04:49PM 33.2617 -84.3519 350° North 392 451 32,000  Level Atlanta Center
04:50PM 33.3681 -84.3794 348° North 392 451 32,000  Level Atlanta Center
04:51PM 33.4722 -84.4025 350° North 387 445 32,000  Level Atlanta Center
04:52PM 33.5892 -84.4278 350° North 382 440 32,000  Level Atlanta Center
04:53PM 33.6933 -84.4533 348° North 382 440 32,000  Level Atlanta Center
04:54PM 33.7978 -84.4789 349° North 377 434 32,000  Level Atlanta Center
04:55PM 33.8956 -84.5017 349° North 391 450 32,000  Level Atlanta Center
04:56PM 34.0125 -84.5325 348° North 386 444 32,000  Level Atlanta Center
04:57PM 34.1189 -84.5556 350° North 392 451 32,000  Level Atlanta Center
04:58PM 34.2189 -84.5789 349° North 405 466 32,000  Level Atlanta Center
04:59PM 34.3231 -84.6022 350° North 393 452 32,000  Level Atlanta Center
05:00PM 34.4272 -84.6281 348° North 381 438 32,000  Level Atlanta Center
05:01PM 34.5419 -84.6542 349° North 381 438 32,000  Level Atlanta Center
05:02PM 34.6525 -84.6828 348° North 387 445 32,000  Level Atlanta Center
05:03PM 34.7567 -84.7114 347° North 387 445 32,000  Level Atlanta Center
05:04PM 34.8608 -84.7375 348° North 387 445 32,000  Level Atlanta Center
05:05PM 34.9672 -84.7636 349° North 387 445 32,000  Level Atlanta Center
05:06PM 35.0756 -84.7925 348° North 392 451 32,000  Level Atlanta Center
05:07PM 35.1839 -84.8189 349° North 392 451 32,000  Level Atlanta Center
05:08PM 35.2881 -84.8453 348° North 392 451 32,000  Level Atlanta Center
05:09PM 35.3964 -84.8719 349° North 392 451 32,000  Level Atlanta Center
05:10PM 35.4836 -84.8931 349° North 392 451 32,000  Level Atlanta Center
05:11PM 35.5983 -84.9225 348° North 392 451 32,000  Level Atlanta Center
05:12PM 35.7086 -84.9517 348° North 392 451 32,000  Level Atlanta Center
05:13PM 35.8231 -84.9839 347° North 392 451 32,000  Level Atlanta Center
05:14PM 35.9231 -85.0056 350° North 397 457 32,000  Level Atlanta Center
05:16PM 36.0981 -85.0483 349° North 395 455 32,000  Level Indianapolis Center
05:17PM 36.2061 -85.0764 348° North 395 455 32,000  Level Indianapolis Center
05:18PM 36.3158 -85.1050 348° North 396 456 32,000  Level Indianapolis Center
05:19PM 36.4258 -85.1339 348° North 398 458 32,000  Level Indianapolis Center
05:20PM 36.5378 -85.1611 349° North 402 463 32,000  Level Indianapolis Center
05:21PM 36.6492 -85.1903 348° North 407 468 32,000  Level Indianapolis Center
05:22PM 36.7831 -85.2250 348° North 408 470 32,000  Level Indianapolis Center
05:23PM 36.8958 -85.2547 348° North 408 470 32,000  Level Indianapolis Center
05:24PM 37.0081 -85.2831 349° North 409 471 32,000  Level Indianapolis Center
05:25PM 37.1172 -85.3103 349° North 409 471 32,000  Level Indianapolis Center
05:26PM 37.2394 -85.2983 North 431 496 32,000  Level Indianapolis Center
05:27PM 37.3814 -85.2997 360° North 436 502 32,000  Level Indianapolis Center
05:28PM 37.4950 -85.3267 349° North 420 483 32,000  Level Indianapolis Center
05:29PM 37.6125 -85.3508 351° North 420 483 32,000  Level Indianapolis Center
05:30PM 37.7300 -85.3742 351° North 424 488 32,000  Level Indianapolis Center
05:31PM 37.8533 -85.4028 350° North 420 483 32,000  Level Indianapolis Center
05:32PM 37.9658 -85.4286 350° North 416 479 32,000  Level Indianapolis Center
05:33PM 38.0797 -85.4550 350° North 415 478 32,000  Level Indianapolis Center
05:34PM 38.1944 -85.4894 347° North 419 482 32,000  Level Indianapolis Center
05:35PM 38.3061 -85.5258 346° North 416 479 32,000  Level Indianapolis Center
05:36PM 38.4197 -85.5578 348° North 416 479 32,000  Level Indianapolis Center
05:38PM 38.5539 -85.6089 343° North 416 479 32,000  Level Indianapolis Center
05:39PM 38.6742 -85.6075 North 442 509 32,000  Level Indianapolis Center
05:40PM 38.7986 -85.5911 North 451 519 32,000  Level Indianapolis Center
05:41PM 38.9108 -85.6342 343° North 431 496 32,000 -180 Level Indianapolis Center
05:42PM 39.0283 -85.6608 350° North 427 491 31,700 -540 Descending Indianapolis Center
05:43PM 39.1417 -85.6872 350° North 421 484 30,900 -1,020 Descending Indianapolis Center
05:44PM 39.2814 -85.7219 349° North 423 487 29,700 -1,020 Descending Indianapolis Center
05:45PM 39.4014 -85.7486 350° North 436 502 28,800 -960 Descending Indianapolis Center
05:46PM 39.5181 -85.7775 349° North 433 498 27,800 -960 Descending Indianapolis Center
05:47PM 39.6331 -85.8056 349° North 427 491 26,800 -1,260 Descending Indianapolis Center
05:48PM 39.7469 -85.8314 350° North 426 490 25,300 -1,680 Descending Indianapolis Center
05:49PM 39.8842 -85.8644 350° North 425 489 23,400 -1,620 Descending Indianapolis Center
05:50PM 39.9942 -85.8908 350° North 415 478 22,000 -720 Descending Indianapolis Center
05:51PM 40.0953 -85.9156 349° North 384 442 22,000  Level Indianapolis Center
05:52PM 40.1772 -85.9356 349° North 377 434 22,000  Level Chicago Center
05:53PM 40.2786 -85.9589 350° North 374 430 22,000  Level Chicago Center
05:54PM 40.3806 -85.9861 349° North 375 432 22,000  Level Chicago Center
05:55PM 40.4831 -86.0103 350° North 376 433 22,000 -600 Level Chicago Center
05:56PM 40.5856 -86.0361 349° North 375 432 20,800 -1,560 Descending Chicago Center
05:57PM 40.6958 -86.0617 350° North 365 420 18,800 -2,040 Descending Chicago Center
05:58PM 40.7961 -86.0878 349° North 365 420 16,600 -2,040 Descending Chicago Center
05:59PM 40.8950 -86.1122 349° North 362 417 14,600 -2,040 Descending Chicago Center
06:00PM 40.9908 -86.1358 349° North 353 406 12,500 -1,800 Descending Chicago Center
06:01PM 41.1025 -86.1550 353° North 340 391 10,900 -1,260 Descending Chicago Center
06:02PM 41.1883 -86.1439 North 312 359 10,000 -1,140 Descending Chicago Center
06:03PM 41.2708 -86.1378 North 298 343 8,600 -1,320 Descending Chicago Center
06:04PM 41.3492 -86.1319 North 284 327 7,300 -1,440 Descending Chicago Center
06:05PM 41.4258 -86.1228 North 279 321 5,700 -1,380 Descending Chicago Center
06:06PM 41.4994 -86.1164 North 272 313 4,500 -1,320 Descending Chicago Center
06:07PM 41.5789 -86.1081 North 255 293 3,000 -720 Descending Chicago Center
06:08PM 41.6369 -86.1033 North 233 268 3,100  Climbing Chicago Center
06:09PM 41.6858 -86.1014 North 203 234 3,000 -180 Descending Chicago Center
06:10PM 41.7058 -86.1444 302° West 173 199 2,800 -300 Descending Chicago Center
06:11PM 41.7056 -86.1950 270° West 150 173 2,400 -540 Descending Chicago Center
06:12PM 41.7044 -86.2411 268° West 136 157 1,700 -480 Descending Chicago Center
06:13PM 41.7036 -86.2972 269° West 133 153 1,500 -240 Descending Chicago Center